Airfield :







YOU CAN JOIN US ON...

 
LOGIN :

Register | Disclaimer

   EN    FR    IT 

 









Legend :    VFR   Marginal VFR   IFR   Intensive IFR   Very Intensive IFR
Visi :
Ceiling :
>= 8 km
>= 3000ft
5 to 8 km
1000 to 3000 ft
1500m to 5 km
500 to 1000 ft
800 to 1500m
200 to 500 ft
< 800m
< 200 ft
Symbols :   Thunderstorms  Fog  Heavy snow  Heavy precipitations  Wind > 20 kt






- Airport Elevation : 234 ft
- IATA code : PBG


KPBG - Plattsburgh International

CURRENT METAR :
  • 051953Z AUTO 29009G21KT 250V330 10SM BKN038 BKN044 OVC070 00/M07 A2971 RMK AO2 SLP063 T00001067

EXPIRED METARs :
  • 051853Z AUTO 24005KT 10SM BKN035 OVC070 00/M07 A2968 RMK AO2 SLP053 T00001067
  • 051753Z AUTO 26009G22KT 230V290 10SM FEW031 BKN045 OVC075 00/M07 A2965 RMK AO2 SLP045 T00001067 10033 20000 53017

TAF KPBG
Valid from the 05 at 19:00 until the 06 at 18:00 UTC


051848Z 0519/0618 28010G19KT P6SM OVC035
FM052100 27009KT P6SM SCT035
FM060800 24005KT P6SM SCT050
FM061100 21004KT P6SM SCT040
FM061600 17005KT P6SM BKN035



MET'MAP, your aeronautical weather chart ! - Copyright ORBIFLY December 2007 - Disclaimer

ORBIFLY MET'MAP TEAM :

Programming & Development : Alexandra Zaïnal
Concept & original design : Baudouin d'Aumeries
Assistance for programming : Marc-Olivier Méhu
Technical & hardware support : Manuel Goepfert

Contact : metmap@orbifly.com




SOURCES & CREDITS :

   NOAA